Ginys del Meteocat

Dades de l'estació automàtica Aitona

?
?
Resum diari 23:00 TU
Dades diàries de l'estació meteorològica
Temperatura mitjana 8.2 °C
Temperatura màxima 14.4 °C 15:01 TU
Temperatura mínima 3.6 °C 3:33 TU
Humitat relativa mitjana 89%
Precipitació acumulada 0.1 mm
Ratxa màxima del vent (2 m) 9.7 km/h - 33º 14:23 TU
Irradiació solar global 6.8 MJ/m2

El tram horari està expressat en Temps Universal (TU). Cal sumar una hora en horari d'hivern i dues en horari d'estiu per passar a l'hora oficial.

Aitona

Metadades estació meteorol´gica
Municipi Aitona
Comarca Segrià
Altitud 97 m
Data alta 12.03.1998
Estat actual Operativa
Dades de període
Període
TU
TM
°C
TX
°C
TN
°C
HRM
%
PPT
mm
VVM (2 m)
km/h
DVM (2 m)
graus
VVX (2 m)
km/h
RS
W/m2
00:00 - 00:30 4.9 5.0 4.8 98 0.0 0.0 306 1.4 0
00:30 - 01:00 4.8 4.8 4.8 98 0.0 0.7 239 2.2 0
01:00 - 01:30 4.7 4.8 4.7 98 0.0 0.4 241 2.9 0
01:30 - 02:00 4.8 5.0 4.7 98 0.0 0.0 336 2.2 0
02:00 - 02:30 4.8 5.1 4.3 98 0.0 0.4 311 2.2 0
02:30 - 03:00 4.3 4.3 4.2 98 0.0 1.1 233 2.9 0
03:00 - 03:30 4.1 4.3 3.6 98 0.0 0.0 0 0.0 0
03:30 - 04:00 3.8 4.1 3.6 98 0.0 0.0 338 2.2 0
04:00 - 04:30 4.0 4.2 3.8 98 0.0 0.0 0 0.0 0
04:30 - 05:00 4.3 4.3 4.2 98 0.0 0.7 26 2.9 0
05:00 - 05:30 4.2 4.2 4.1 98 0.0 0.7 36 3.2 0
05:30 - 06:00 4.2 4.2 4.1 98 0.1 1.4 15 2.9 0
06:00 - 06:30 4.0 4.1 4.0 98 0.0 0.4 48 2.5 0
06:30 - 07:00 4.1 4.1 4.0 98 0.0 0.0 65 1.4 0
07:00 - 07:30 4.1 4.2 4.0 98 0.0 0.0 0 0.0 3
07:30 - 08:00 3.8 4.0 3.7 98 0.0 0.4 241 2.9 23
08:00 - 08:30 4.1 4.4 3.9 98 0.0 0.7 216 3.2 50
08:30 - 09:00 4.7 5.0 4.5 98 0.0 1.8 210 3.6 61
09:00 - 09:30 5.2 5.4 4.9 98 0.0 0.7 248 3.6 96
09:30 - 10:00 5.7 6.1 5.4 98 0.0 0.0 177 1.1 137
10:00 - 10:30 6.6 7.1 6.1 98 0.0 0.7 190 4.0 182
10:30 - 11:00 7.7 8.5 7.0 97 0.0 1.4 28 5.0 361
11:00 - 11:30 9.1 9.9 8.6 91 0.0 2.2 35 6.1 434
11:30 - 12:00 9.8 10.2 9.6 85 0.0 1.1 351 3.6 243
12:00 - 12:30 11.5 12.4 10.2 79 0.0 1.1 318 4.3 443
12:30 - 13:00 12.3 12.9 11.8 75 0.0 1.4 337 5.8 359
13:00 - 13:30 13.0 13.2 12.6 73 0.0 1.4 331 4.7 291
13:30 - 14:00 13.4 13.9 13.2 72 0.0 0.7 265 3.2 238
14:00 - 14:30 14.2 14.3 14.0 68 0.0 3.6 30 9.7 347
14:30 - 15:00 14.0 14.3 13.9 67 0.0 4.3 39 9.7 203
15:00 - 15:30 14.2 14.4 14.0 66 0.0 3.6 43 7.9 142
15:30 - 16:00 13.8 14.0 13.6 68 0.0 2.5 55 7.6 82
16:00 - 16:30 13.6 13.7 13.5 70 0.0 1.4 66 4.7 62
16:30 - 17:00 13.0 13.5 12.5 73 0.0 2.5 32 4.7 15
17:00 - 17:30 11.7 12.4 11.4 80 0.0 0.4 336 2.2 0
17:30 - 18:00 11.6 12.0 11.1 81 0.0 1.4 25 4.3 0
18:00 - 18:30 10.8 11.1 10.5 85 0.0 0.7 61 2.5 0
18:30 - 19:00 10.4 10.7 10.3 88 0.0 0.7 276 3.6 0
19:00 - 19:30 10.7 10.9 10.5 87 0.0 1.4 10 4.3 0
19:30 - 20:00 10.5 10.9 10.2 87 0.0 1.8 39 4.3 0
20:00 - 20:30 9.9 10.1 9.5 89 0.0 2.2 49 5.8 0
20:30 - 21:00 9.6 9.9 9.4 91 0.0 2.2 52 5.0 0
21:00 - 21:30 9.4 9.5 9.3 91 0.0 1.8 61 4.3 0
21:30 - 22:00 9.4 9.5 9.2 91 0.0 2.2 48 5.0 0
22:00 - 22:30 9.1 9.2 9.0 92 0.0 2.9 45 5.8 0
22:30 - 23:00 9.0 9.1 8.9 93 0.0 2.2 43 4.7 0
23:00 - 23:30 8.7 9.0 8.5 93 0.0 0.4 65 2.5 0

Les dades en taronja només han passat un control de qualitat automàtic. Resta pendent la seva validació definitiva.